createdAt,value
2018-08-07T00:00:17.137Z,65.00
2018-08-07T00:02:46.022Z,65.80
2018-08-07T00:05:15.509Z,66.10
2018-08-07T00:07:44.713Z,66.50
2018-08-07T00:12:44.261Z,67.50
2018-08-07T00:15:13.453Z,67.60
2018-08-07T00:17:41.956Z,67.60
2018-08-07T00:20:14.976Z,67.50
2018-08-07T00:22:44.914Z,67.40
2018-08-07T00:27:42.746Z,67.20
2018-08-07T00:30:12.618Z,66.90
2018-08-07T00:32:41.113Z,66.80
2018-08-07T00:35:17.457Z,66.40
2018-08-07T00:40:15.284Z,66.30
2018-08-07T00:42:45.041Z,66.00
2018-08-07T00:45:16.461Z,65.50
2018-08-07T00:47:44.882Z,65.40
2018-08-07T00:50:15.565Z,65.00
2018-08-07T00:52:45.476Z,65.10
2018-08-07T00:55:14.480Z,65.30
2018-08-07T00:57:42.882Z,64.40
2018-08-07T01:00:12.773Z,64.40
2018-08-07T01:02:41.208Z,64.40
2018-08-07T01:05:11.313Z,64.20
2018-08-07T01:07:40.019Z,64.10
2018-08-07T01:10:10.341Z,64.20
2018-08-07T01:12:38.899Z,64.30
2018-08-07T01:15:10.638Z,64.10
2018-08-07T01:17:39.045Z,64.00
2018-08-07T01:20:09.950Z,64.20
2018-08-07T01:22:38.932Z,64.20
2018-08-07T01:25:18.497Z,64.20
2018-08-07T01:27:46.969Z,64.30
2018-08-07T01:30:18.144Z,64.30
2018-08-07T01:32:46.610Z,64.10
2018-08-07T01:35:15.045Z,64.20
2018-08-07T01:37:44.409Z,64.20
2018-08-07T01:40:13.166Z,64.10
2018-08-07T01:42:41.921Z,64.00
2018-08-07T01:45:10.818Z,64.20
2018-08-07T01:47:39.757Z,64.10
2018-08-07T01:50:09.809Z,64.40
2018-08-07T01:52:38.242Z,64.50
2018-08-07T01:55:08.549Z,64.60
2018-08-07T02:00:07.774Z,65.00
2018-08-07T02:02:36.255Z,65.50
2018-08-07T02:05:07.197Z,66.00
2018-08-07T02:07:35.761Z,66.20
2018-08-07T02:10:04.826Z,66.70
2018-08-07T02:12:33.265Z,66.80
2018-08-07T02:15:01.932Z,67.30
2018-08-07T02:17:30.345Z,68.40
2018-08-07T02:19:58.841Z,68.00
2018-08-07T02:22:27.432Z,68.30
2018-08-07T02:24:55.844Z,68.70
2018-08-07T02:27:24.273Z,69.20
2018-08-07T02:29:52.929Z,69.50
2018-08-07T02:32:21.341Z,69.90
2018-08-07T02:34:49.809Z,70.10
2018-08-07T02:37:18.420Z,70.40
2018-08-07T02:39:46.826Z,70.70
2018-08-07T02:42:15.272Z,70.90
2018-08-07T02:44:44.760Z,70.90
2018-08-07T02:47:13.204Z,71.00
2018-08-07T02:49:41.626Z,71.20
2018-08-07T02:52:10.290Z,71.40
2018-08-07T02:54:38.673Z,71.90
2018-08-07T02:57:07.073Z,72.20
2018-08-07T02:59:35.696Z,72.80
2018-08-07T03:02:04.062Z,73.30
2018-08-07T03:04:32.432Z,73.90
2018-08-07T03:07:00.837Z,74.50
2018-08-07T03:09:29.181Z,75.10
2018-08-07T03:11:57.746Z,75.50
2018-08-07T03:14:26.167Z,75.90
2018-08-07T03:16:54.569Z,76.30
2018-08-07T03:19:23.017Z,76.40
2018-08-07T03:21:51.558Z,76.80
2018-08-07T03:24:19.978Z,77.30
2018-08-07T03:26:48.563Z,77.80
2018-08-07T03:29:17.208Z,78.10
2018-08-07T03:31:45.828Z,79.50
2018-08-07T03:34:15.156Z,79.50
2018-08-07T03:36:43.781Z,80.00
2018-08-07T03:39:13.757Z,80.40
2018-08-07T03:41:42.260Z,81.20
2018-08-07T03:44:11.625Z,81.40
2018-08-07T03:46:39.996Z,81.90
2018-08-07T03:49:09.110Z,82.40
2018-08-07T03:51:37.704Z,82.90
2018-08-07T03:54:06.293Z,83.10
2018-08-07T03:56:34.698Z,83.70
2018-08-07T03:59:03.620Z,84.40
2018-08-07T04:01:31.957Z,84.70
2018-08-07T04:04:00.464Z,85.00
2018-08-07T04:06:29.381Z,85.30
2018-08-07T04:08:58.178Z,85.30
2018-08-07T04:11:26.698Z,85.40
2018-08-07T04:13:55.227Z,85.70
2018-08-07T04:16:23.597Z,85.80
2018-08-07T04:18:51.957Z,86.40
2018-08-07T04:21:20.339Z,86.70
2018-08-07T04:23:48.892Z,87.00
2018-08-07T04:26:17.422Z,87.70
2018-08-07T04:28:45.858Z,88.70
2018-08-07T04:31:15.201Z,87.60
2018-08-07T04:33:43.837Z,86.80
2018-08-07T04:36:12.198Z,84.80
2018-08-07T04:38:40.649Z,81.70
2018-08-07T04:41:09.077Z,78.40
2018-08-07T04:43:37.542Z,76.00
2018-08-07T04:46:06.325Z,73.80
2018-08-07T04:48:34.870Z,71.30
2018-08-07T04:51:03.289Z,69.00
2018-08-07T04:53:31.984Z,68.80
2018-08-07T04:56:00.404Z,66.70
2018-08-07T04:58:28.873Z,65.40
2018-08-07T05:00:58.581Z,64.60
2018-08-07T05:03:27.337Z,64.00
2018-08-07T05:05:55.690Z,62.10
2018-08-07T05:08:24.093Z,61.10
2018-08-07T05:10:52.665Z,59.80
2018-08-07T05:13:21.092Z,58.30
2018-08-07T05:15:49.520Z,56.10
2018-08-07T05:18:17.951Z,55.50
2018-08-07T05:20:46.538Z,55.70
2018-08-07T05:23:15.469Z,55.00
2018-08-07T05:25:43.937Z,55.40
2018-08-07T05:28:12.582Z,54.30
2018-08-07T05:30:40.998Z,54.20
2018-08-07T05:33:09.433Z,54.20
2018-08-07T05:35:37.912Z,53.50
2018-08-07T05:38:06.528Z,53.50
2018-08-07T05:40:34.936Z,52.50
2018-08-07T05:45:31.669Z,52.50
2018-08-07T05:48:00.085Z,51.80
2018-08-07T05:50:28.777Z,50.30
2018-08-07T05:52:57.253Z,49.20
2018-08-07T05:55:25.797Z,49.50
2018-08-07T05:57:54.206Z,49.50
2018-08-07T06:00:22.829Z,49.30
2018-08-07T06:02:51.441Z,49.30
2018-08-07T06:05:19.868Z,48.20
2018-08-07T06:07:49.350Z,48.00
2018-08-07T06:10:17.784Z,46.70
2018-08-07T06:12:46.168Z,45.50
2018-08-07T06:15:16.682Z,46.30
2018-08-07T06:17:46.453Z,45.80
2018-08-07T06:20:15.917Z,44.80
2018-08-07T06:22:44.337Z,44.50
2018-08-07T06:25:12.761Z,44.20
2018-08-07T06:27:41.409Z,43.90
2018-08-07T06:30:17.355Z,43.90
2018-08-07T06:32:46.540Z,44.00
2018-08-07T06:35:16.049Z,44.50
2018-08-07T06:37:44.538Z,44.00
2018-08-07T06:40:13.605Z,43.60
2018-08-07T06:42:42.191Z,43.90
2018-08-07T06:45:12.185Z,43.50
2018-08-07T06:47:40.617Z,43.20
2018-08-07T06:50:14.036Z,42.60
2018-08-07T06:52:42.759Z,42.50
2018-08-07T06:55:11.897Z,42.20
2018-08-07T06:57:40.668Z,42.40
2018-08-07T07:00:11.825Z,42.50
2018-08-07T07:02:40.558Z,42.70
2018-08-07T07:05:09.121Z,43.30
2018-08-07T07:07:38.065Z,42.50
2018-08-07T07:10:07.751Z,43.20
2018-08-07T07:12:36.221Z,43.00
2018-08-07T07:15:06.018Z,42.80
2018-08-07T07:17:37.625Z,43.50
2018-08-07T07:20:08.509Z,43.50
2018-08-07T07:22:36.925Z,45.10
2018-08-07T07:25:05.683Z,45.30
2018-08-07T07:27:34.366Z,44.90
2018-08-07T07:30:02.878Z,44.70
2018-08-07T07:32:31.300Z,44.70
2018-08-07T07:34:59.958Z,44.50
2018-08-07T07:37:28.451Z,45.30
2018-08-07T07:39:56.931Z,45.40
2018-08-07T07:42:25.559Z,45.50
2018-08-07T07:44:53.984Z,46.80
2018-08-07T07:47:22.477Z,45.50
2018-08-07T07:49:51.141Z,46.00
2018-08-07T07:52:19.599Z,46.20
2018-08-07T07:54:48.059Z,46.40
2018-08-07T07:57:16.825Z,46.50
2018-08-07T07:59:46.197Z,46.40
2018-08-07T08:02:14.758Z,46.90
2018-08-07T08:04:43.352Z,46.50
2018-08-07T08:07:11.857Z,46.60
2018-08-07T08:09:40.301Z,46.60
2018-08-07T08:12:09.035Z,47.00
2018-08-07T08:14:37.473Z,46.80
2018-08-07T08:17:06.194Z,45.60
2018-08-07T08:19:34.900Z,45.50
2018-08-07T08:22:03.398Z,45.70
2018-08-07T08:24:31.819Z,46.70
2018-08-07T08:27:00.445Z,45.50
2018-08-07T08:29:29.125Z,45.70
2018-08-07T08:31:57.394Z,46.40
2018-08-07T08:34:26.044Z,45.50
2018-08-07T08:36:54.502Z,45.20
2018-08-07T08:39:22.952Z,45.30
2018-08-07T08:41:51.458Z,45.30
2018-08-07T08:44:19.968Z,46.50
2018-08-07T08:46:48.753Z,45.00
2018-08-07T08:49:17.247Z,45.30
2018-08-07T08:51:46.523Z,45.70
2018-08-07T08:54:15.271Z,45.40
2018-08-07T08:56:43.780Z,45.50
2018-08-07T08:59:12.240Z,45.70
2018-08-07T09:01:41.224Z,45.00
2018-08-07T09:04:09.761Z,45.00
2018-08-07T09:06:38.291Z,45.40
2018-08-07T09:09:09.829Z,45.20
2018-08-07T09:11:38.412Z,45.00
2018-08-07T09:14:07.095Z,44.80
2018-08-07T09:16:35.845Z,44.90
2018-08-07T09:19:04.373Z,44.90
2018-08-07T09:21:32.899Z,45.30
2018-08-07T09:24:01.620Z,44.70
2018-08-07T09:26:30.177Z,44.70
2018-08-07T09:28:58.638Z,44.90
2018-08-07T09:31:27.317Z,44.80
2018-08-07T09:33:55.872Z,43.90
2018-08-07T09:36:24.503Z,44.10
2018-08-07T09:38:53.155Z,43.80
2018-08-07T09:41:21.723Z,44.10
2018-08-07T09:43:50.235Z,43.50
2018-08-07T09:46:18.923Z,44.10
2018-08-07T09:48:47.407Z,44.30
2018-08-07T09:51:16.797Z,43.10
2018-08-07T09:53:45.576Z,43.30
2018-08-07T09:56:14.021Z,43.10
2018-08-07T09:58:42.531Z,43.20
2018-08-07T10:01:16.411Z,43.30
2018-08-07T10:03:44.892Z,43.70
2018-08-07T10:06:13.437Z,42.70
2018-08-07T10:08:42.118Z,42.60
2018-08-07T10:11:10.614Z,41.80
2018-08-07T10:13:39.082Z,41.30
2018-08-07T10:16:07.765Z,41.40
2018-08-07T10:18:36.191Z,41.40
2018-08-07T10:21:04.656Z,41.80
2018-08-07T10:23:33.206Z,42.00
2018-08-07T10:26:01.924Z,40.30
2018-08-07T10:28:30.411Z,40.30
2018-08-07T10:30:58.933Z,40.90
2018-08-07T10:33:27.437Z,40.60
2018-08-07T10:35:56.099Z,41.40
2018-08-07T10:38:24.631Z,40.20
2018-08-07T10:40:53.273Z,41.00
2018-08-07T10:43:21.971Z,40.20
2018-08-07T10:45:50.574Z,39.90
2018-08-07T10:48:19.110Z,40.00
2018-08-07T10:50:47.902Z,39.50
2018-08-07T10:53:17.084Z,38.90
2018-08-07T10:55:45.639Z,39.50
2018-08-07T10:58:14.443Z,39.80
2018-08-07T11:00:42.995Z,39.00
2018-08-07T11:03:11.481Z,38.80
2018-08-07T11:05:40.026Z,38.20
2018-08-07T11:08:08.730Z,38.60
2018-08-07T11:10:37.251Z,37.80
2018-08-07T11:13:06.345Z,37.50
2018-08-07T11:15:35.722Z,37.80
2018-08-07T11:18:04.427Z,37.90
2018-08-07T11:20:33.115Z,37.10
2018-08-07T11:23:02.660Z,36.90
2018-08-07T11:25:31.839Z,37.40
2018-08-07T11:28:00.886Z,37.10
2018-08-07T11:30:29.993Z,36.80
2018-08-07T11:32:59.639Z,36.70
2018-08-07T11:35:28.619Z,36.30
2018-08-07T11:37:59.702Z,36.20
2018-08-07T11:40:28.243Z,36.30
2018-08-07T11:42:58.603Z,36.30
2018-08-07T11:45:28.675Z,37.40
2018-08-07T11:47:57.401Z,36.90
2018-08-07T11:50:28.073Z,36.70
2018-08-07T11:52:56.622Z,36.10
2018-08-07T11:55:25.468Z,36.70
2018-08-07T11:57:54.884Z,36.00
2018-08-07T12:00:30.693Z,35.30
2018-08-07T12:02:59.374Z,35.30
2018-08-07T12:05:27.879Z,35.20
2018-08-07T12:07:56.374Z,35.90
2018-08-07T12:10:24.967Z,35.40
2018-08-07T12:15:22.924Z,35.90
2018-08-07T12:17:51.403Z,36.70
2018-08-07T12:20:20.082Z,35.80
2018-08-07T12:22:48.758Z,36.30
2018-08-07T12:25:18.004Z,35.90
2018-08-07T12:27:46.617Z,35.70
2018-08-07T12:30:21.395Z,35.00
2018-08-07T12:32:49.902Z,34.70
2018-08-07T12:35:18.408Z,34.90
2018-08-07T12:37:47.088Z,35.60
2018-08-07T12:40:19.159Z,35.10
2018-08-07T12:42:48.862Z,35.00
2018-08-07T12:45:18.505Z,35.50
2018-08-07T12:47:47.432Z,35.00
2018-08-07T12:50:16.702Z,35.10
2018-08-07T12:52:45.514Z,35.70
2018-08-07T12:55:16.520Z,34.90
2018-08-07T12:57:45.659Z,35.90
2018-08-07T13:00:18.744Z,35.10
2018-08-07T13:02:47.721Z,34.50
2018-08-07T13:05:16.212Z,34.60
2018-08-07T13:07:44.684Z,34.80
2018-08-07T13:10:14.734Z,35.00
2018-08-07T13:12:43.871Z,34.70
2018-08-07T13:15:14.327Z,34.90
2018-08-07T13:17:43.352Z,35.20
2018-08-07T13:20:12.172Z,35.20
2018-08-07T13:22:41.644Z,35.30
2018-08-07T13:25:12.000Z,34.70
2018-08-07T13:27:41.010Z,34.50
2018-08-07T13:30:18.415Z,35.40
2018-08-07T13:32:47.261Z,35.50
2018-08-07T13:35:16.106Z,34.60
2018-08-07T13:37:45.891Z,35.60
2018-08-07T13:40:16.020Z,35.40
2018-08-07T13:42:44.502Z,35.70
2018-08-07T13:45:16.620Z,35.20
2018-08-07T13:47:45.151Z,34.70
2018-08-07T13:50:16.484Z,35.00
2018-08-07T13:52:45.461Z,35.40
2018-08-07T13:55:15.095Z,34.50
2018-08-07T13:57:43.771Z,34.50
2018-08-07T14:00:17.683Z,35.10
2018-08-07T14:02:47.094Z,35.10
2018-08-07T14:05:16.372Z,34.20
2018-08-07T14:07:45.245Z,34.70
2018-08-07T14:10:14.728Z,34.70
2018-08-07T14:12:43.239Z,34.80
2018-08-07T14:15:13.099Z,34.20
2018-08-07T14:17:42.556Z,34.30
2018-08-07T14:20:12.309Z,34.60
2018-08-07T14:22:41.064Z,34.60
2018-08-07T14:25:13.164Z,34.50
2018-08-07T14:27:41.623Z,34.80
2018-08-07T14:30:14.948Z,34.70
2018-08-07T14:32:43.432Z,34.60
2018-08-07T14:35:11.904Z,35.30
2018-08-07T14:37:43.202Z,34.80
2018-08-07T14:40:16.900Z,34.70
2018-08-07T14:42:47.022Z,34.10
2018-08-07T14:45:16.942Z,34.90
2018-08-07T14:47:45.463Z,35.30
2018-08-07T14:50:19.892Z,34.90
2018-08-07T14:52:48.947Z,35.00
2018-08-07T14:55:17.472Z,35.00
2018-08-07T14:57:46.183Z,35.30
2018-08-07T15:00:16.971Z,35.40
2018-08-07T15:02:46.079Z,35.90
2018-08-07T15:05:14.680Z,36.00
2018-08-07T15:07:43.478Z,36.30
2018-08-07T15:10:17.068Z,36.90
2018-08-07T15:12:45.590Z,36.60
2018-08-07T15:15:20.910Z,36.20
2018-08-07T15:17:49.456Z,35.90
2018-08-07T15:20:20.441Z,36.50
2018-08-07T15:22:50.179Z,36.40
2018-08-07T15:25:19.413Z,36.20
2018-08-07T15:27:48.157Z,36.60
2018-08-07T15:30:20.797Z,36.60
2018-08-07T15:32:50.062Z,36.60
2018-08-07T15:35:19.784Z,37.10
2018-08-07T15:37:48.330Z,36.50
2018-08-07T15:40:17.495Z,37.10
2018-08-07T15:42:46.357Z,36.50
2018-08-07T15:45:16.360Z,35.70
2018-08-07T15:47:45.131Z,36.30
2018-08-07T15:50:15.928Z,35.80
2018-08-07T15:52:45.917Z,35.00
2018-08-07T15:55:16.692Z,35.00
2018-08-07T15:57:45.227Z,36.40
2018-08-07T16:00:18.496Z,34.90
2018-08-07T16:02:46.991Z,35.40
2018-08-07T16:05:15.791Z,35.70
2018-08-07T16:07:44.885Z,35.60
2018-08-07T16:10:15.856Z,35.90
2018-08-07T16:12:45.466Z,35.70
2018-08-07T16:15:14.447Z,35.50
2018-08-07T16:17:43.760Z,35.70
2018-08-07T16:20:12.441Z,36.10
2018-08-07T16:22:41.390Z,35.50
2018-08-07T16:25:11.741Z,35.80
2018-08-07T16:27:41.623Z,34.90
2018-08-07T16:30:12.193Z,35.40
2018-08-07T16:32:40.826Z,35.40
2018-08-07T16:35:09.513Z,35.20
2018-08-07T16:37:37.966Z,35.50
2018-08-07T16:40:09.184Z,34.50
2018-08-07T16:42:37.973Z,34.80
2018-08-07T16:45:08.589Z,35.10
2018-08-07T16:47:37.132Z,35.40
2018-08-07T16:50:06.417Z,35.40
2018-08-07T16:52:35.430Z,35.70
2018-08-07T16:55:03.941Z,35.60
2018-08-07T16:57:32.366Z,34.60
2018-08-07T17:00:01.160Z,34.30
2018-08-07T17:02:29.641Z,35.00
2018-08-07T17:04:58.101Z,34.40
2018-08-07T17:07:27.060Z,34.90
2018-08-07T17:09:55.563Z,34.70
2018-08-07T17:12:24.281Z,34.70
2018-08-07T17:14:52.908Z,34.70
2018-08-07T17:17:21.443Z,34.90
2018-08-07T17:19:50.028Z,34.70
2018-08-07T17:22:18.891Z,34.50
2018-08-07T17:24:47.409Z,34.70
2018-08-07T17:27:15.881Z,34.90
2018-08-07T17:29:44.901Z,34.70
2018-08-07T17:32:13.436Z,34.90
2018-08-07T17:34:41.945Z,35.10
2018-08-07T17:37:11.157Z,35.20
2018-08-07T17:39:39.661Z,35.40
2018-08-07T17:42:08.189Z,35.80
2018-08-07T17:44:37.148Z,36.10
2018-08-07T17:47:06.519Z,36.10
2018-08-07T17:49:35.110Z,35.80
2018-08-07T17:52:03.912Z,35.90
2018-08-07T17:54:32.347Z,37.00
2018-08-07T17:57:00.913Z,37.30
2018-08-07T17:59:29.701Z,37.50
2018-08-07T18:01:58.342Z,37.90
2018-08-07T18:04:27.030Z,38.10
2018-08-07T18:06:55.779Z,37.80
2018-08-07T18:09:24.349Z,38.10
2018-08-07T18:11:52.927Z,39.20
2018-08-07T18:14:21.990Z,39.30
2018-08-07T18:16:50.461Z,39.80
2018-08-07T18:19:18.936Z,39.00
2018-08-07T18:21:47.933Z,39.00
2018-08-07T18:24:16.432Z,38.90
2018-08-07T18:26:45.058Z,38.50
2018-08-07T18:29:14.005Z,38.80
2018-08-07T18:31:42.441Z,39.30
2018-08-07T18:34:10.965Z,39.00
2018-08-07T18:36:39.739Z,39.40
2018-08-07T18:39:09.390Z,39.60
2018-08-07T18:41:37.960Z,40.00
2018-08-07T18:44:06.933Z,39.70
2018-08-07T18:46:35.425Z,40.40
2018-08-07T18:49:04.406Z,40.60
2018-08-07T18:51:33.057Z,40.60
2018-08-07T18:54:01.723Z,41.10
2018-08-07T18:56:30.180Z,41.00
2018-08-07T18:58:59.104Z,41.50
2018-08-07T19:01:27.658Z,41.60
2018-08-07T19:03:56.070Z,42.10
2018-08-07T19:06:25.257Z,42.30
2018-08-07T19:08:54.054Z,42.30
2018-08-07T19:11:22.753Z,42.60
2018-08-07T19:13:51.320Z,42.80
2018-08-07T19:16:19.701Z,43.70
2018-08-07T19:18:48.413Z,43.30
2018-08-07T19:21:17.282Z,42.60
2018-08-07T19:23:45.732Z,43.40
2018-08-07T19:26:14.484Z,43.00
2018-08-07T19:28:43.119Z,43.90
2018-08-07T19:31:11.521Z,44.60
2018-08-07T19:33:40.389Z,44.90
2018-08-07T19:36:09.004Z,45.70
2018-08-07T19:38:37.589Z,46.00
2018-08-07T19:41:06.922Z,46.00
2018-08-07T19:43:35.465Z,45.60
2018-08-07T19:46:04.152Z,45.10
2018-08-07T19:48:32.972Z,45.70
2018-08-07T19:51:01.582Z,45.20
2018-08-07T19:53:30.853Z,45.70
2018-08-07T19:58:29.763Z,45.30
2018-08-07T20:00:58.530Z,46.00
2018-08-07T20:03:28.015Z,45.80
2018-08-07T20:05:56.419Z,46.40
2018-08-07T20:08:24.856Z,46.60
2018-08-07T20:10:53.619Z,47.10
2018-08-07T20:13:22.921Z,47.20
2018-08-07T20:15:51.489Z,47.00
2018-08-07T20:18:20.679Z,47.70
2018-08-07T20:20:49.211Z,47.70
2018-08-07T20:23:17.752Z,47.30
2018-08-07T20:25:46.521Z,48.20
2018-08-07T20:28:44.060Z,49.40
2018-08-07T20:31:12.933Z,50.30
2018-08-07T20:33:41.908Z,50.20
2018-08-07T20:36:11.049Z,49.90
2018-08-07T20:38:39.802Z,50.20
2018-08-07T20:41:08.366Z,50.30
2018-08-07T20:43:36.785Z,49.60
2018-08-07T20:46:05.436Z,49.50
2018-08-07T20:48:33.844Z,49.10
2018-08-07T20:51:02.226Z,48.70
2018-08-07T20:53:30.845Z,48.00
2018-08-07T20:55:59.309Z,47.40
2018-08-07T20:58:27.809Z,47.00
2018-08-07T21:00:56.392Z,46.90
2018-08-07T21:03:24.785Z,47.00
2018-08-07T21:05:53.502Z,47.30
2018-08-07T21:08:22.144Z,48.20
2018-08-07T21:10:50.605Z,47.70
2018-08-07T21:13:19.012Z,48.00
2018-08-07T21:15:47.628Z,48.10
2018-08-07T21:18:16.022Z,48.30
2018-08-07T21:20:44.403Z,48.60
2018-08-07T21:23:13.034Z,48.70
2018-08-07T21:25:41.437Z,48.90
2018-08-07T21:28:09.883Z,49.20
2018-08-07T21:30:38.485Z,49.20
2018-08-07T21:33:07.362Z,49.50
2018-08-07T21:35:35.768Z,49.50
2018-08-07T21:38:04.362Z,49.70
2018-08-07T21:40:32.752Z,49.90
2018-08-07T21:43:01.161Z,50.00
2018-08-07T21:45:29.810Z,50.10
2018-08-07T21:47:58.205Z,50.40
2018-08-07T21:50:27.130Z,50.70
2018-08-07T21:52:55.736Z,50.60
2018-08-07T21:55:24.165Z,50.70
2018-08-07T21:57:53.444Z,51.40
2018-08-07T22:00:36.482Z,50.60
2018-08-07T22:03:04.950Z,50.80
2018-08-07T22:05:33.309Z,50.90
2018-08-07T22:08:02.068Z,51.00
2018-08-07T22:10:30.552Z,50.50
2018-08-07T22:12:58.931Z,50.70
2018-08-07T22:15:27.654Z,50.70
2018-08-07T22:17:56.050Z,50.70
2018-08-07T22:20:24.529Z,50.80
2018-08-07T22:22:53.947Z,50.60
2018-08-07T22:25:22.377Z,50.10
2018-08-07T22:27:50.760Z,50.70
2018-08-07T22:30:20.988Z,50.80
2018-08-07T22:32:49.919Z,51.00
2018-08-07T22:35:18.361Z,51.70
2018-08-07T22:37:47.250Z,51.20
2018-08-07T22:40:16.537Z,51.10
2018-08-07T22:42:45.126Z,51.10
2018-08-07T22:45:15.325Z,51.10
2018-08-07T22:47:43.845Z,51.20
2018-08-07T22:50:13.537Z,51.20
2018-08-07T22:52:42.731Z,51.40
2018-08-07T22:55:12.814Z,51.50
2018-08-07T22:57:41.276Z,51.20
2018-08-07T23:00:19.623Z,51.40
2018-08-07T23:02:47.952Z,51.60
2018-08-07T23:05:17.972Z,51.70
2018-08-07T23:07:46.674Z,51.80
2018-08-07T23:10:18.524Z,51.70
2018-08-07T23:12:47.242Z,51.80
2018-08-07T23:15:17.597Z,52.40
2018-08-07T23:17:46.498Z,51.90
2018-08-07T23:20:16.056Z,51.80
2018-08-07T23:22:44.418Z,52.00
2018-08-07T23:25:13.152Z,51.90
2018-08-07T23:27:41.569Z,52.00
2018-08-07T23:30:13.088Z,51.90
2018-08-07T23:32:41.541Z,52.10
2018-08-07T23:35:10.305Z,51.70
2018-08-07T23:37:38.899Z,51.90
2018-08-07T23:40:08.928Z,52.10
2018-08-07T23:42:37.354Z,52.80
2018-08-07T23:45:07.250Z,52.70
2018-08-07T23:47:35.937Z,52.20
2018-08-07T23:50:04.580Z,52.40
2018-08-07T23:52:33.374Z,52.50
2018-08-07T23:55:01.762Z,53.10
2018-08-07T23:57:30.174Z,52.70
2018-08-07T23:59:58.854Z,52.70
